Flight Track Log - Related Links

Times and Time Zones

All times are in EDT time to prevent confusion due to time zone crossing. See the N606FT flight status page for this flight to view local times or setup timezone preferences in your user account.

Time Position Orientation Groundspeed Altitude Reporting Facility
EDT Latitude Longitude Course Direction KTS MPH feet Rate Location/Type
Sat 04:24:44 PM 28.3167 -80.7833 155° Southeast 80 92 3,100  Level Orlando TRACON
Sat 04:25:50 PM 28.3000 -80.8000 221° Southwest 89 102 3,600 263 Climbing Orlando TRACON
Sat 04:26:38 PM 28.2667 -80.8000 180° South 115 132 3,600  Level Orlando TRACON
Sat 04:28:42 PM 28.2069 -80.8028 182° South 104 120 3,600  Level Miami Center
Sat 04:29:42 PM 28.1775 -80.8042 182° South 104 120 3,600  Level Miami Center
Sat 04:30:00 PM 28.5886 -81.5503 155° Southeast  Level Estimated
Sat 04:30:42 PM 28.1442 -80.8031 178° South 109 125 3,600  Level Miami Center
Sat 04:31:42 PM 28.1169 -80.8044 183° South 109 125 3,500 -50 Descending Miami Center
Sat 04:32:42 PM 28.0900 -80.8033 178° South 101 116 3,500  Level Miami Center
Sat 04:33:42 PM 28.0586 -80.8000 175° South 101 116 3,500  Level Miami Center
Sat 04:34:42 PM 28.0317 -80.7967 174° South 101 116 3,500 50 Level Miami Center
Sat 04:35:42 PM 28.0047 -80.7886 165° South 101 116 3,600 50 Climbing Miami Center
Sat 04:36:42 PM 27.9819 -80.7856 173° South 101 116 3,600  Level Miami Center
Sat 04:37:42 PM 27.9531 -80.7753 163° South 106 122 3,600  Level Miami Center
Sat 04:38:42 PM 27.9261 -80.7647 161° South 106 122 3,600 -50 Level Miami Center
Sat 04:39:42 PM 27.8994 -80.7522 157° South 106 122 3,500  Descending Miami Center
Sat 04:40:42 PM 27.8808 -80.7397 149° Southeast 106 122 3,600  Climbing Miami Center
Sat 04:41:42 PM 27.8519 -80.7272 159° South 101 116 3,500 -50 Descending Miami Center
Sat 04:42:42 PM 27.8253 -80.7169 161° South 101 116 3,500 50 Level Miami Center
Sat 04:43:42 PM 27.7961 -80.7133 174° South 101 116 3,600  Climbing Miami Center
Sat 04:44:42 PM 27.7708 -80.7197 193° South 101 116 3,500  Descending Miami Center
Sat 04:45:42 PM 27.7456 -80.7258 192° South 106 122 3,600 50 Climbing Miami Center
Sat 04:46:42 PM 27.7206 -80.7297 188° South 106 122 3,600 -50 Level Miami Center
Sat 04:47:42 PM 27.6911 -80.7358 190° South 106 122 3,500 -50 Descending Miami Center
Sat 04:48:42 PM 27.6658 -80.7394 187° South 100 115 3,500  Level Miami Center
Sat 04:49:42 PM 27.6389 -80.7386 178° South 100 115 3,500  Level Miami Center
Sat 04:50:42 PM 27.6158 -80.7425 189° South 100 115 3,500  Level Miami Center
Sat 04:51:42 PM 27.5906 -80.7464 188° South 100 115 3,500  Level Miami Center
Sat 04:52:42 PM 27.5633 -80.7503 187° South 100 115 3,500 50 Level Miami Center
Sat 04:53:42 PM 27.5358 -80.7586 195° South 105 121 3,600  Climbing Miami Center
Sat 04:54:42 PM 27.5064 -80.7669 194° South 105 121 3,500 -100 Descending Miami Center

Login

Don't have an account? Register now (free) for customized features, flight alerts, and more!